Time;durP1;ratioP1;P1;durP2;ratioP2;P2;SDS_P1;SDS_P2;PMS_P1;PMS_P2;Temp;Humidity;BMP_temperature;BMP_pressure;BME280_temperature;BME280_humidity;BME280_pressure;Samples;Min_cycle;Max_cycle;Signal;HPM_P1;HPM_P2
2022/08/10 00:01:34;;;;;;;2.00;1.20;;;20.10;62.90;;;;;;5055830;28;20021;-33
2022/08/10 00:04:00;;;;;;;1.27;1.00;;;20.10;62.90;;;;;;5055599;28;20036;-33
2022/08/10 00:06:26;;;;;;;1.38;1.27;;;20.10;63.00;;;;;;5055574;28;20397;-33
2022/08/10 00:08:52;;;;;;;1.05;1.00;;;20.10;63.00;;;;;;5037528;28;20033;-33
2022/08/10 00:11:18;;;;;;;2.15;1.17;;;20.00;63.00;;;;;;5055495;28;20028;-34
2022/08/10 00:13:44;;;;;;;2.58;1.10;;;20.00;63.10;;;;;;5055579;28;20538;-32
2022/08/10 00:16:09;;;;;;;1.33;1.23;;;20.00;63.20;;;;;;5054571;28;20476;-33
2022/08/10 00:18:35;;;;;;;1.88;1.15;;;20.00;63.20;;;;;;5055540;28;20155;-34
2022/08/10 00:21:05;;;;;;;1.20;1.10;;;19.90;63.20;;;;;;5055339;28;20480;-34
2022/08/10 00:23:31;;;;;;;1.88;1.10;;;19.90;63.30;;;;;;5055319;28;20032;-33
2022/08/10 00:25:56;;;;;;;0.90;0.90;;;19.90;63.40;;;;;;5055386;28;20032;-33
2022/08/10 00:28:22;;;;;;;1.10;1.00;;;19.90;63.50;;;;;;5055437;28;20499;-34
2022/08/10 00:30:47;;;;;;;2.38;0.93;;;19.90;63.50;;;;;;5053639;28;20029;-32
2022/08/10 00:33:13;;;;;;;1.98;1.00;;;19.90;63.60;;;;;;5055130;28;20036;-33
2022/08/10 00:35:38;;;;;;;1.20;1.10;;;19.90;63.70;;;;;;5054904;28;20092;-36
2022/08/10 00:38:04;;;;;;;1.08;1.02;;;19.90;63.70;;;;;;5054820;28;20075;-42
2022/08/10 00:40:30;;;;;;;0.90;0.90;;;19.90;63.80;;;;;;5054645;28;20091;-33
2022/08/10 00:42:55;;;;;;;3.13;1.08;;;19.90;63.80;;;;;;5054933;28;20484;-33
2022/08/10 00:45:21;;;;;;;1.30;1.20;;;19.90;63.80;;;;;;5053871;28;20025;-33
2022/08/10 00:47:46;;;;;;;1.27;1.00;;;19.80;63.90;;;;;;5054984;28;20425;-32
2022/08/10 00:50:12;;;;;;;1.23;0.85;;;19.80;64.00;;;;;;5054926;28;20436;-32
2022/08/10 00:52:38;;;;;;;1.02;1.00;;;19.70;64.10;;;;;;5055199;28;20040;-33
2022/08/10 00:55:05;;;;;;;0.98;0.98;;;19.70;64.20;;;;;;5054833;28;20076;-33
2022/08/10 00:57:31;;;;;;;1.20;1.10;;;19.70;64.40;;;;;;5054833;28;20021;-34
2022/08/10 00:59:57;;;;;;;1.17;1.05;;;19.60;64.50;;;;;;5054680;28;20079;-33
2022/08/10 01:02:22;;;;;;;1.10;1.00;;;19.50;64.50;;;;;;5054581;28;20045;-32
2022/08/10 01:04:48;;;;;;;1.27;0.77;;;19.50;64.60;;;;;;5053241;28;20032;-32
2022/08/10 01:07:20;;;;;;;1.55;1.20;;;19.50;64.70;;;;;;5054546;28;20472;-33
2022/08/10 01:09:53;;;;;;;1.35;1.25;;;19.50;64.90;;;;;;5053127;28;20032;-32
2022/08/10 01:12:36;;;;;;;1.02;1.00;;;19.40;65.00;;;;;;5053035;28;20484;-33
2022/08/10 01:15:20;;;;;;;2.17;1.00;;;19.40;65.10;;;;;;5054310;28;20040;-32
2022/08/10 01:17:51;;;;;;;1.45;1.00;;;19.40;65.10;;;;;;5054224;28;20070;-32
2022/08/10 01:20:22;;;;;;;1.50;1.02;;;19.40;65.00;;;;;;5054142;28;20025;-33
2022/08/10 01:22:56;;;;;;;1.20;1.10;;;19.40;65.10;;;;;;5054194;28;20025;-32
2022/08/10 01:25:37;;;;;;;1.08;1.08;;;19.30;65.10;;;;;;5054225;28;20493;-33
2022/08/10 01:28:21;;;;;;;1.00;1.00;;;19.30;65.40;;;;;;5054683;28;20028;-32
2022/08/10 01:30:52;;;;;;;1.52;1.20;;;19.20;65.40;;;;;;5054218;28;20372;-32
2022/08/10 01:33:28;;;;;;;1.05;1.02;;;19.20;65.60;;;;;;5054159;28;20085;-33
2022/08/10 01:36:06;;;;;;;1.13;1.02;;;19.20;65.70;;;;;;5053977;28;20068;-32
2022/08/10 01:38:35;;;;;;;1.58;1.10;;;19.10;65.70;;;;;;5053242;28;20052;-33
2022/08/10 01:41:16;;;;;;;1.63;1.13;;;19.10;65.80;;;;;;5054084;28;20055;-32
2022/08/10 01:43:46;;;;;;;1.33;1.23;;;19.10;65.90;;;;;;5053799;28;20149;-31
2022/08/10 01:46:14;;;;;;;1.15;1.08;;;19.10;66.00;;;;;;5053887;28;20152;-32
2022/08/10 01:48:47;;;;;;;1.08;1.05;;;19.10;66.10;;;;;;5053644;28;20032;-33
2022/08/10 01:51:15;;;;;;;;;;;19.00;66.20;;;;;;5054356;28;20028;-33
2022/08/10 01:53:50;;;;;;;1.50;1.30;;;19.00;66.10;;;;;;5053741;28;19916;-34
2022/08/10 01:56:17;;;;;;;3.13;1.40;;;18.90;66.30;;;;;;5053859;28;20025;-34
2022/08/10 01:58:47;;;;;;;1.75;1.48;;;19.00;66.50;;;;;;5053452;28;20031;-33
2022/08/10 02:01:16;;;;;;;1.40;1.30;;;18.90;66.60;;;;;;5053503;28;20027;-33
2022/08/10 02:03:43;;;;;;;1.35;1.25;;;18.90;66.80;;;;;;5053672;28;20029;-34
2022/08/10 02:06:12;;;;;;;1.60;1.50;;;18.80;66.90;;;;;;5053258;28;20029;-34
2022/08/10 02:08:40;;;;;;;1.98;1.50;;;18.80;67.10;;;;;;5053321;28;20107;-33
2022/08/10 02:11:08;;;;;;;1.88;1.55;;;18.80;67.10;;;;;;5053234;28;20059;-33
2022/08/10 02:13:35;;;;;;;2.30;1.50;;;18.80;67.30;;;;;;5053244;28;20043;-34
2022/08/10 02:16:02;;;;;;;1.65;1.55;;;18.70;67.40;;;;;;5053409;28;20376;-33
2022/08/10 02:18:29;;;;;;;1.55;1.40;;;18.70;67.40;;;;;;5052121;28;20021;-44
2022/08/10 02:20:58;;;;;;;1.42;1.20;;;18.80;67.50;;;;;;5052694;28;20481;-33
2022/08/10 02:23:27;;;;;;;3.05;1.20;;;18.80;67.50;;;;;;5053023;28;20032;-33
2022/08/10 02:25:55;;;;;;;2.17;1.10;;;18.70;67.50;;;;;;5053296;28;20021;-33
2022/08/10 02:28:24;;;;;;;1.45;1.35;;;18.70;67.50;;;;;;5053096;28;20104;-34
2022/08/10 02:30:53;;;;;;;1.52;1.42;;;18.70;67.70;;;;;;5051662;28;20032;-33
2022/08/10 02:33:20;;;;;;;1.52;1.42;;;18.70;67.80;;;;;;5053355;28;20396;-34
2022/08/10 02:35:48;;;;;;;1.52;1.40;;;18.70;67.90;;;;;;5053008;28;20017;-33
2022/08/10 02:38:19;;;;;;;1.80;1.70;;;18.60;68.00;;;;;;5052930;28;20071;-33
2022/08/10 02:40:48;;;;;;;1.70;1.52;;;18.60;68.20;;;;;;5052630;28;20049;-33
2022/08/10 02:43:16;;;;;;;2.05;1.55;;;18.60;68.30;;;;;;5053044;28;20396;-33
2022/08/10 02:45:45;;;;;;;1.90;1.80;;;18.50;68.40;;;;;;5051498;28;20154;-33
2022/08/10 02:48:33;;;;;;;2.67;1.80;;;18.50;68.60;;;;;;5053060;28;20380;-33
2022/08/10 02:51:04;;;;;;;2.92;1.60;;;18.50;68.80;;;;;;5049162;28;20119;-33
2022/08/10 02:53:31;;;;;;;2.25;1.50;;;18.50;68.70;;;;;;5052661;28;20455;-33
2022/08/10 02:56:10;;;;;;;2.75;1.83;;;18.50;68.70;;;;;;5052808;28;20028;-33
2022/08/10 02:58:44;;;;;;;1.92;1.70;;;18.50;68.70;;;;;;5052713;28;20025;-34
2022/08/10 03:01:15;;;;;;;2.15;1.55;;;18.50;68.70;;;;;;5052707;28;20017;-33
2022/08/10 03:04:03;;;;;;;2.35;1.67;;;18.50;68.80;;;;;;5052064;28;20025;-34
2022/08/10 03:06:43;;;;;;;1.50;1.40;;;18.50;68.80;;;;;;5052793;28;20087;-34
2022/08/10 03:09:12;;;;;;;1.90;1.70;;;18.60;68.80;;;;;;5052705;28;20435;-33
2022/08/10 03:11:40;;;;;;;1.48;1.38;;;18.50;68.80;;;;;;5052683;28;20401;-34
2022/08/10 03:14:08;;;;;;;1.98;1.73;;;18.50;69.00;;;;;;5052811;28;20043;-33
2022/08/10 03:16:35;;;;;;;1.67;1.58;;;18.40;69.10;;;;;;5052993;28;20088;-39
2022/08/10 03:19:03;;;;;;;4.00;1.80;;;18.40;69.20;;;;;;5052634;28;20017;-33
2022/08/10 03:21:31;;;;;;;1.90;1.80;;;18.40;69.40;;;;;;5052678;28;20021;-34
2022/08/10 03:24:01;;;;;;;1.85;1.75;;;18.30;69.50;;;;;;5052935;28;20028;-34
2022/08/10 03:26:29;;;;;;;2.95;2.10;;;18.30;69.70;;;;;;5052969;28;20384;-34
2022/08/10 03:28:57;;;;;;;2.30;1.75;;;18.20;69.90;;;;;;5052543;28;20385;-33
2022/08/10 03:31:24;;;;;;;3.20;2.10;;;18.20;70.00;;;;;;5052532;28;20021;-33
2022/08/10 03:33:51;;;;;;;1.92;1.83;;;18.20;70.10;;;;;;5055920;28;20036;-32
2022/08/10 03:36:17;;;;;;;2.60;1.80;;;18.10;70.30;;;;;;5056222;28;20021;-33
2022/08/10 03:38:47;;;;;;;2.90;1.83;;;18.10;70.30;;;;;;5056139;28;20104;-32
2022/08/10 03:41:15;;;;;;;2.28;1.90;;;18.10;70.40;;;;;;5056422;28;20033;-33
2022/08/10 03:43:43;;;;;;;2.28;2.08;;;18.10;70.50;;;;;;5056432;28;20032;-34
2022/08/10 03:46:10;;;;;;;3.83;2.03;;;18.10;70.60;;;;;;5056193;28;20112;-33
2022/08/10 03:48:38;;;;;;;3.00;2.15;;;18.10;70.70;;;;;;5056337;28;20475;-33
2022/08/10 03:51:05;;;;;;;2.72;2.13;;;18.10;70.90;;;;;;5056774;28;20052;-34
2022/08/10 03:53:32;;;;;;;3.78;2.25;;;18.00;70.90;;;;;;5055934;28;20028;-33
2022/08/10 03:55:58;;;;;;;2.72;2.20;;;18.00;71.10;;;;;;5055851;28;20013;-35
2022/08/10 03:58:24;;;;;;;2.33;2.13;;;18.00;71.20;;;;;;5055912;28;20092;-33
2022/08/10 04:00:50;;;;;;;2.47;2.28;;;18.00;71.30;;;;;;5054868;28;20017;-32
2022/08/10 04:03:16;;;;;;;3.80;2.20;;;18.00;71.40;;;;;;5055806;28;20459;-33
2022/08/10 04:05:42;;;;;;;4.00;2.42;;;17.90;71.50;;;;;;5055838;28;20114;-33
2022/08/10 04:08:08;;;;;;;2.75;2.15;;;17.90;71.60;;;;;;5055732;28;20029;-33
2022/08/10 04:10:33;;;;;;;2.53;2.33;;;17.90;71.60;;;;;;5055815;28;20033;-34
2022/08/10 04:12:59;;;;;;;2.40;2.20;;;17.80;71.70;;;;;;5055481;28;20369;-34
2022/08/10 04:15:25;;;;;;;2.45;2.25;;;17.80;71.70;;;;;;5056015;28;20431;-39
2022/08/10 04:17:50;;;;;;;5.32;2.85;;;17.90;71.80;;;;;;5055850;28;20024;-33
2022/08/10 04:20:48;;;;;;;2.75;2.33;;;17.80;71.80;;;;;;5055514;28;20365;-33
2022/08/10 04:23:27;;;;;;;2.83;2.60;;;17.80;72.10;;;;;;5055466;28;20029;-33
2022/08/10 04:25:54;;;;;;;3.53;2.30;;;17.80;72.00;;;;;;5053963;28;20476;-33
2022/08/10 04:28:20;;;;;;;3.78;2.58;;;17.80;72.00;;;;;;5055281;28;20047;-34
2022/08/10 04:30:48;;;;;;;3.53;2.72;;;17.80;72.20;;;;;;5055453;28;20481;-33
2022/08/10 04:33:17;;;;;;;3.00;2.70;;;17.80;72.30;;;;;;5055148;28;20385;-33
2022/08/10 04:35:45;;;;;;;2.95;2.55;;;17.80;72.40;;;;;;5055179;28;20020;-31
2022/08/10 04:38:12;;;;;;;3.28;2.90;;;17.80;72.50;;;;;;5055332;28;20108;-34
2022/08/10 04:40:38;;;;;;;4.68;2.80;;;17.70;72.40;;;;;;5054891;28;20455;-34
2022/08/10 04:43:05;;;;;;;4.53;2.70;;;17.80;72.40;;;;;;5054928;28;20464;-34
2022/08/10 04:45:31;;;;;;;4.07;3.03;;;17.80;72.60;;;;;;5054981;28;20075;-34
2022/08/10 04:47:57;;;;;;;2.58;2.38;;;17.70;72.60;;;;;;5053660;28;20435;-33
2022/08/10 04:50:22;;;;;;;3.63;3.22;;;17.70;72.70;;;;;;5054961;28;20021;-33
2022/08/10 04:52:48;;;;;;;3.17;2.83;;;17.70;72.80;;;;;;5054721;28;20025;-32
2022/08/10 04:55:14;;;;;;;3.95;2.80;;;17.70;72.80;;;;;;5054868;28;20025;-34
2022/08/10 04:57:39;;;;;;;5.13;3.22;;;17.80;72.90;;;;;;5055125;28;20028;-34
2022/08/10 05:00:06;;;;;;;3.58;2.92;;;17.70;72.90;;;;;;5054740;28;20100;-33
2022/08/10 05:02:31;;;;;;;3.80;3.03;;;17.80;72.90;;;;;;5054883;28;20468;-33
2022/08/10 05:04:57;;;;;;;3.53;3.13;;;17.80;72.90;;;;;;5054625;28;20032;-33
2022/08/10 05:07:23;;;;;;;3.50;2.72;;;17.80;73.00;;;;;;5054961;28;20099;-33
2022/08/10 05:09:49;;;;;;;3.85;3.45;;;17.80;72.90;;;;;;5054602;28;20052;-32
2022/08/10 05:12:15;;;;;;;4.15;3.47;;;17.90;73.00;;;;;;5054570;28;20025;-34
2022/08/10 05:14:40;;;;;;;4.03;3.17;;;17.90;73.00;;;;;;5054340;28;20025;-33
2022/08/10 05:17:06;;;;;;;3.28;2.97;;;17.90;73.00;;;;;;5054331;28;20472;-33
2022/08/10 05:19:31;;;;;;;3.65;3.22;;;17.90;72.90;;;;;;5054167;28;20032;-33
2022/08/10 05:21:57;;;;;;;3.95;2.90;;;17.90;72.90;;;;;;5054743;28;20414;-34
2022/08/10 05:24:22;;;;;;;3.75;3.35;;;18.00;72.90;;;;;;5054669;28;20100;-33
2022/08/10 05:26:48;;;;;;;4.20;3.30;;;18.00;72.80;;;;;;5054476;28;20025;-34
2022/08/10 05:29:14;;;;;;;4.15;3.75;;;18.10;72.80;;;;;;5054402;28;20029;-34
2022/08/10 05:31:39;;;;;;;4.43;3.40;;;18.10;72.80;;;;;;5054147;28;20028;-33
2022/08/10 05:34:05;;;;;;;3.10;2.80;;;18.20;72.80;;;;;;5053988;28;20037;-33
2022/08/10 05:36:32;;;;;;;5.25;3.72;;;18.20;72.70;;;;;;5054016;28;20021;-34
2022/08/10 05:38:59;;;;;;;5.70;4.10;;;18.20;72.70;;;;;;5054209;28;20403;-33
2022/08/10 05:41:27;;;;;;;5.65;3.35;;;18.20;72.80;;;;;;5053904;28;20496;-35
2022/08/10 05:43:53;;;;;;;5.55;3.13;;;18.30;72.90;;;;;;5053800;28;20031;-33
2022/08/10 05:46:18;;;;;;;5.15;3.65;;;18.30;72.80;;;;;;5053846;28;20029;-33
2022/08/10 05:48:44;;;;;;;4.25;3.50;;;18.30;72.70;;;;;;5054060;28;20032;-35
2022/08/10 05:51:10;;;;;;;4.13;3.53;;;18.30;72.70;;;;;;5053725;28;20028;-33
2022/08/10 05:53:37;;;;;;;5.10;3.40;;;18.40;72.80;;;;;;5053494;28;20025;-33
2022/08/10 05:56:07;;;;;;;3.20;2.90;;;18.40;72.70;;;;;;5052737;28;20036;-33
2022/08/10 05:58:34;;;;;;;4.72;3.17;;;18.40;72.60;;;;;;5053491;28;20024;-33
2022/08/10 06:01:04;;;;;;;4.63;3.65;;;18.50;72.60;;;;;;5053639;28;20025;-34
2022/08/10 06:03:35;;;;;;;3.30;3.00;;;18.50;72.60;;;;;;5053218;28;20029;-35
2022/08/10 06:06:03;;;;;;;5.70;3.58;;;18.50;72.60;;;;;;5053286;28;20513;-35
2022/08/10 06:08:34;;;;;;;4.65;3.38;;;18.50;72.50;;;;;;5053236;28;20113;-34
2022/08/10 06:11:04;;;;;;;5.18;3.72;;;18.60;72.60;;;;;;5053375;28;20025;-33
2022/08/10 06:16:19;;;;;;;3.13;2.67;;;18.60;72.40;;;;;;5053385;28;20439;-33
2022/08/10 06:18:44;;;;;;;6.13;2.80;;;18.70;72.20;;;;;;5053897;28;20017;-33
2022/08/10 06:21:11;;;;;;;4.25;3.00;;;18.70;72.10;;;;;;5052990;28;20111;-34
2022/08/10 06:23:38;;;;;;;3.90;2.78;;;18.80;72.10;;;;;;5053002;28;20025;-32
2022/08/10 06:26:05;;;;;;;3.45;2.78;;;18.80;72.00;;;;;;5053006;28;20032;-33
2022/08/10 06:28:36;;;;;;;4.07;3.55;;;18.90;71.90;;;;;;5053196;28;20021;-33
2022/08/10 06:31:04;;;;;;;3.30;2.80;;;19.00;71.80;;;;;;5053197;28;20427;-34
2022/08/10 06:33:33;;;;;;;30.00;4.85;;;19.00;71.50;;;;;;5053087;28;20048;-33
2022/08/10 06:36:01;;;;;;;59.20;8.57;;;19.10;71.30;;;;;;5053210;28;20078;-33
2022/08/10 06:38:31;;;;;;;98.60;16.45;;;19.20;71.10;;;;;;5052945;28;20017;-33
2022/08/10 06:41:01;;;;;;;43.22;8.63;;;19.20;71.00;;;;;;5052712;28;20132;-33
2022/08/10 06:43:29;;;;;;;31.38;6.75;;;19.30;70.80;;;;;;5052922;28;20025;-34
2022/08/10 06:46:00;;;;;;;91.60;11.07;;;19.40;70.60;;;;;;5053007;28;20162;-34
2022/08/10 06:48:32;;;;;;;112.13;15.48;;;19.40;70.40;;;;;;5053078;28;20040;-33
2022/08/10 06:51:05;;;;;;;109.18;14.23;;;19.50;70.20;;;;;;5052034;28;20033;-34
2022/08/10 06:53:45;;;;;;;23.75;6.70;;;19.60;70.00;;;;;;5052867;28;20060;-33
2022/08/10 06:56:13;;;;;;;25.33;5.57;;;19.60;69.80;;;;;;5053004;28;20017;-33
2022/08/10 06:58:53;;;;;;;20.65;4.70;;;19.70;69.60;;;;;;5052714;28;20020;-34
2022/08/10 07:01:23;;;;;;;13.18;3.33;;;19.80;69.40;;;;;;5052945;28;20032;-34
2022/08/10 07:04:00;;;;;;;5.25;2.40;;;19.90;69.20;;;;;;5052538;28;20102;-32
2022/08/10 07:06:27;;;;;;;6.00;2.33;;;19.90;68.80;;;;;;5053966;28;20032;-33
2022/08/10 07:08:54;;;;;;;3.70;2.33;;;20.00;68.60;;;;;;5056601;28;20029;-32
2022/08/10 07:11:20;;;;;;;5.80;1.80;;;20.10;68.30;;;;;;5056861;28;20029;-33
2022/08/10 07:13:47;;;;;;;4.57;1.80;;;20.20;68.00;;;;;;5056625;28;20025;-36
2022/08/10 07:16:14;;;;;;;4.40;1.85;;;20.20;67.70;;;;;;5056546;28;20051;-37
2022/08/10 07:18:43;;;;;;;2.28;1.77;;;20.30;67.50;;;;;;5056398;28;20040;-35
2022/08/10 07:21:10;;;;;;;6.43;2.10;;;20.30;67.20;;;;;;5056631;28;20021;-35
2022/08/10 07:23:38;;;;;;;6.80;2.30;;;20.50;67.00;;;;;;5055043;28;20064;-36
2022/08/10 07:26:05;;;;;;;3.45;1.63;;;20.50;66.70;;;;;;5055397;28;20138;-36
2022/08/10 07:28:32;;;;;;;1.75;1.42;;;20.60;66.50;;;;;;5055056;28;20021;-36
2022/08/10 07:30:59;;;;;;;3.88;1.80;;;20.70;66.20;;;;;;5056349;28;20032;-36
2022/08/10 07:33:26;;;;;;;2.42;1.50;;;20.80;65.90;;;;;;5056574;28;20029;-36
2022/08/10 07:35:53;;;;;;;4.35;1.65;;;20.80;65.40;;;;;;5055995;28;20017;-34
2022/08/10 07:38:25;;;;;;;2.60;1.77;;;20.90;65.30;;;;;;5056322;28;20013;-34
2022/08/10 07:40:52;;;;;;;2.55;1.33;;;21.00;64.90;;;;;;5054683;28;20488;-35
2022/08/10 07:43:21;;;;;;;3.15;1.40;;;21.00;64.70;;;;;;5056023;28;20032;-35
2022/08/10 07:45:48;;;;;;;2.10;1.40;;;21.10;64.30;;;;;;5055966;28;20113;-36
2022/08/10 07:48:29;;;;;;;2.42;1.70;;;21.20;64.20;;;;;;5056224;28;20376;-35
2022/08/10 07:51:00;;;;;;;2.42;1.50;;;21.30;64.00;;;;;;5054681;28;20029;-36
2022/08/10 07:53:29;;;;;;;1.63;1.50;;;21.40;63.80;;;;;;5054551;28;20392;-45
2022/08/10 07:55:58;;;;;;;1.60;1.50;;;21.50;63.50;;;;;;5055856;28;20026;-36
2022/08/10 07:58:28;;;;;;;2.90;1.60;;;21.60;63.20;;;;;;5056101;28;20021;-36
2022/08/10 08:00:56;;;;;;;2.17;1.50;;;21.70;62.80;;;;;;5056202;28;20041;-36
2022/08/10 08:03:26;;;;;;;2.47;1.38;;;21.80;62.50;;;;;;5055601;28;20033;-36
2022/08/10 08:05:52;;;;;;;2.03;1.40;;;21.80;62.30;;;;;;5055680;28;20338;-36
2022/08/10 08:08:19;;;;;;;1.50;0.98;;;21.90;62.10;;;;;;5055547;28;20036;-35
2022/08/10 08:10:46;;;;;;;1.95;1.20;;;22.10;61.90;;;;;;5055754;28;20032;-36
2022/08/10 08:13:13;;;;;;;2.15;1.23;;;22.10;61.70;;;;;;5055198;28;20400;-36
2022/08/10 08:15:42;;;;;;;3.90;1.33;;;22.20;61.40;;;;;;5055428;28;20017;-38
2022/08/10 08:18:08;;;;;;;2.05;1.45;;;22.30;60.90;;;;;;5055005;28;20028;-35
2022/08/10 08:20:35;;;;;;;3.25;1.50;;;22.40;60.70;;;;;;5055217;28;20506;-34
2022/08/10 08:23:02;;;;;;;1.92;1.50;;;22.50;60.60;;;;;;5055229;28;20017;-35
2022/08/10 08:25:28;;;;;;;2.42;1.38;;;22.50;60.30;;;;;;5055385;28;20024;-34
2022/08/10 08:27:55;;;;;;;1.80;1.30;;;22.70;60.00;;;;;;5055102;28;20028;-35
2022/08/10 08:30:23;;;;;;;1.30;1.13;;;22.80;59.80;;;;;;5055290;28;20021;-35
2022/08/10 08:32:50;;;;;;;1.40;1.30;;;22.80;59.50;;;;;;5054174;28;20075;-35
2022/08/10 08:35:20;;;;;;;1.88;1.33;;;23.00;58.90;;;;;;5054801;28;20372;-36
2022/08/10 08:37:48;;;;;;;1.35;1.25;;;23.10;58.70;;;;;;5055037;28;20499;-36
2022/08/10 08:40:32;;;;;;;6.32;1.40;;;23.20;58.40;;;;;;5054652;28;20373;-36
2022/08/10 08:43:11;;;;;;;1.33;1.17;;;23.20;58.00;;;;;;5054872;28;20016;-35
2022/08/10 08:45:51;;;;;;;2.45;1.33;;;23.30;58.00;;;;;;5054615;28;20021;-34
2022/08/10 08:48:17;;;;;;;1.30;1.20;;;23.40;57.70;;;;;;5054740;28;20020;-36
2022/08/10 08:51:17;;;;;;;1.45;1.20;;;23.50;57.50;;;;;;5054274;28;20491;-35
2022/08/10 08:53:49;;;;;;;1.50;1.38;;;23.60;57.00;;;;;;5054582;28;20469;-35
2022/08/10 08:57:02;;;;;;;3.78;1.50;;;23.70;56.90;;;;;;5054297;28;20083;-37
2022/08/10 09:00:04;;;;;;;2.72;1.60;;;23.80;56.60;;;;;;5042190;28;20188;-34
2022/08/10 09:02:38;;;;;;;3.45;1.20;;;23.90;56.40;;;;;;5049551;28;20025;-35
2022/08/10 09:05:36;;;;;;;2.67;1.15;;;24.10;56.20;;;;;;5054487;28;20040;-35
2022/08/10 09:08:26;;;;;;;4.00;1.60;;;24.10;55.80;;;;;;5054278;28;20515;-35
2022/08/10 09:10:55;;;;;;;2.95;1.50;;;24.20;55.60;;;;;;5054072;28;20094;-36
2022/08/10 09:13:38;;;;;;;1.80;1.30;;;24.30;55.40;;;;;;5054058;28;20028;-35
2022/08/10 09:16:33;;;;;;;2.40;1.50;;;24.40;54.90;;;;;;5054196;28;20017;-34
2022/08/10 09:19:11;;;;;;;1.55;1.30;;;24.50;54.20;;;;;;5053890;28;20026;-34
2022/08/10 09:22:01;;;;;;;3.20;1.88;;;24.50;54.20;;;;;;5052437;28;20028;-33
2022/08/10 09:24:48;;;;;;;2.53;1.80;;;24.50;53.70;;;;;;5053853;28;20105;-35
2022/08/10 09:27:38;;;;;;;4.13;1.38;;;24.60;53.20;;;;;;5053711;28;20029;-35
2022/08/10 09:30:06;;;;;;;2.63;1.50;;;24.70;53.30;;;;;;5051065;28;20044;-34
2022/08/10 09:32:38;;;;;;;2.00;1.70;;;24.70;53.30;;;;;;5052428;28;20036;-35
2022/08/10 09:35:26;;;;;;;2.22;1.40;;;24.90;53.30;;;;;;5053476;28;20021;-35
2022/08/10 09:38:20;;;;;;;1.88;1.45;;;24.90;52.90;;;;;;5053632;28;20052;-35
2022/08/10 09:41:15;;;;;;;1.55;1.40;;;25.00;52.80;;;;;;5053312;28;20053;-35
2022/08/10 09:43:57;;;;;;;2.33;1.30;;;25.10;52.70;;;;;;5053885;28;20356;-37
2022/08/10 09:46:53;;;;;;;1.42;1.30;;;25.20;52.50;;;;;;5052353;28;20028;-36
2022/08/10 09:49:56;;;;;;;2.33;1.20;;;25.30;52.40;;;;;;5053601;28;20029;-36
2022/08/10 09:52:47;;;;;;;11.80;2.60;;;25.40;52.10;;;;;;5053568;28;20040;-36
2022/08/10 09:55:36;;;;;;;18.70;4.00;;;25.40;51.80;;;;;;5053368;28;20391;-34
2022/08/10 09:58:26;;;;;;;8.07;2.10;;;25.50;51.30;;;;;;5053286;28;20131;-35
2022/08/10 10:01:26;;;;;;;4.65;1.60;;;25.50;51.40;;;;;;5053479;28;20028;-35
2022/08/10 10:04:10;;;;;;;3.92;1.65;;;25.50;51.00;;;;;;5049277;28;20045;-35
2022/08/10 10:06:43;;;;;;;1.40;1.13;;;25.60;50.70;;;;;;5053063;28;20051;-35
2022/08/10 10:09:19;;;;;;;1.50;1.00;;;25.70;50.60;;;;;;5053573;28;20017;-35
2022/08/10 10:12:06;;;;;;;3.42;1.40;;;25.70;50.10;;;;;;5053087;28;20116;-35
2022/08/10 10:18:01;;;;;;;4.45;1.20;;;25.80;50.00;;;;;;5053114;28;20517;-35
2022/08/10 10:21:14;;;;;;;2.00;1.17;;;26.00;50.10;;;;;;5053243;28;20029;-36
2022/08/10 10:23:54;;;;;;;2.60;1.20;;;26.00;49.90;;;;;;5047652;28;20040;-34
2022/08/10 10:26:44;;;;;;;2.38;1.10;;;26.10;49.80;;;;;;5052732;28;20385;-34
2022/08/10 10:29:41;;;;;;;2.88;0.98;;;26.20;49.60;;;;;;5052728;28;20025;-34
2022/08/10 10:32:33;;;;;;;2.67;1.05;;;26.30;49.20;;;;;;5052310;28;20037;-35
2022/08/10 10:35:04;;;;;;;0.80;0.80;;;26.40;48.90;;;;;;5049210;28;20116;-34
2022/08/10 10:37:31;;;;;;;0.82;0.82;;;26.50;48.60;;;;;;5052593;28;20092;-35
2022/08/10 10:40:00;;;;;;;1.08;0.88;;;26.60;48.20;;;;;;5052499;28;20041;-36
2022/08/10 10:42:45;;;;;;;1.77;1.02;;;26.60;48.10;;;;;;5052275;28;20028;-36
2022/08/10 10:45:18;;;;;;;1.02;0.80;;;26.70;48.20;;;;;;5052592;28;20028;-35
2022/08/10 10:47:47;;;;;;;;;;;26.70;48.20;;;;;;5053221;28;20162;-36
2022/08/10 10:50:17;;;;;;;1.27;0.85;;;26.80;48.50;;;;;;5052466;28;19904;-36
2022/08/10 10:52:48;;;;;;;1.15;1.00;;;26.80;48.00;;;;;;5052360;28;20064;-36
2022/08/10 10:55:35;;;;;;;3.80;1.13;;;26.80;48.10;;;;;;5052315;28;20163;-35
2022/08/10 10:58:22;;;;;;;2.00;1.00;;;26.80;47.70;;;;;;5052905;28;20036;-36
2022/08/10 11:00:56;;;;;;;1.00;0.90;;;26.90;47.50;;;;;;5052332;28;20021;-35
2022/08/10 11:03:46;;;;;;;2.85;0.82;;;26.90;47.40;;;;;;5052826;28;20380;-35
2022/08/10 11:06:32;;;;;;;1.65;0.98;;;27.00;47.10;;;;;;5052667;28;20491;-36
2022/08/10 11:09:07;;;;;;;1.15;0.90;;;27.10;46.90;;;;;;5052388;28;20104;-35
2022/08/10 11:11:40;;;;;;;1.23;0.95;;;27.10;46.90;;;;;;5052422;28;20048;-36
2022/08/10 11:14:27;;;;;;;2.78;1.10;;;27.20;46.90;;;;;;5052525;28;20029;-36
2022/08/10 11:17:15;;;;;;;1.73;1.05;;;27.40;47.00;;;;;;5052355;28;20380;-36
2022/08/10 11:19:58;;;;;;;2.42;1.40;;;27.50;46.90;;;;;;5052453;28;20025;-36
2022/08/10 11:22:34;;;;;;;1.45;1.00;;;27.60;46.60;;;;;;5052781;28;20028;-36
2022/08/10 11:25:20;;;;;;;1.00;1.00;;;27.70;46.20;;;;;;5052343;28;20029;-35
2022/08/10 11:27:47;;;;;;;1.20;0.90;;;27.70;46.00;;;;;;5052243;28;20044;-36
2022/08/10 11:30:24;;;;;;;1.50;0.90;;;27.70;45.90;;;;;;5052574;28;20093;-35
2022/08/10 11:33:27;;;;;;;1.80;1.10;;;27.70;45.40;;;;;;5052801;28;20029;-46
2022/08/10 11:35:59;;;;;;;5.10;1.20;;;27.80;45.80;;;;;;5052349;28;20138;-47
2022/08/10 11:38:28;;;;;;;3.70;0.98;;;27.90;45.80;;;;;;5050579;28;20025;-44
2022/08/10 11:41:00;;;;;;;1.30;0.90;;;28.00;45.50;;;;;;5051529;28;20049;-44
2022/08/10 11:43:28;;;;;;;1.30;1.00;;;28.10;45.50;;;;;;5051898;28;20029;-45
2022/08/10 11:46:10;;;;;;;1.50;0.90;;;28.30;45.40;;;;;;5052035;28;20061;-45
2022/08/10 11:48:39;;;;;;;0.80;0.80;;;28.30;45.00;;;;;;5052107;28;20021;-43
2022/08/10 11:51:13;;;;;;;1.13;0.90;;;28.40;45.10;;;;;;5050478;28;20435;-43
2022/08/10 11:53:47;;;;;;;2.53;0.80;;;28.50;44.60;;;;;;5053166;28;20064;-45
2022/08/10 11:56:27;;;;;;;2.05;1.02;;;28.60;44.50;;;;;;5055430;28;20044;-43
2022/08/10 12:01:40;;;;;;;0.90;0.82;;;28.80;44.40;;;;;;5055776;28;20036;-44
2022/08/10 12:04:07;;;;;;;1.00;0.90;;;28.80;44.30;;;;;;5054056;28;20512;-44
2022/08/10 12:06:37;;;;;;;1.55;0.80;;;28.90;44.10;;;;;;5055521;28;20025;-44
2022/08/10 12:09:04;;;;;;;0.80;0.80;;;29.00;43.90;;;;;;5055619;28;20033;-44
2022/08/10 12:11:31;;;;;;;0.90;0.90;;;29.10;43.90;;;;;;5055589;28;20365;-44
2022/08/10 12:14:09;;;;;;;2.38;0.70;;;29.10;43.30;;;;;;5053646;28;20025;-44
2022/08/10 12:16:38;;;;;;;2.35;0.80;;;29.30;43.10;;;;;;5054958;28;20480;-44
2022/08/10 12:19:26;;;;;;;0.95;0.90;;;29.30;42.70;;;;;;5055042;28;20075;-44
2022/08/10 12:22:05;;;;;;;3.38;0.80;;;29.40;42.60;;;;;;5054877;28;20499;-44
2022/08/10 12:24:50;;;;;;;1.00;0.90;;;29.50;42.60;;;;;;5054827;28;20025;-44
2022/08/10 12:27:16;;;;;;;1.08;0.95;;;29.60;42.40;;;;;;5055254;28;20052;-45
2022/08/10 12:29:46;;;;;;;1.10;1.00;;;29.70;42.40;;;;;;5055041;28;20182;-44
2022/08/10 12:32:21;;;;;;;1.52;0.90;;;29.80;42.20;;;;;;5055201;28;20028;-44
2022/08/10 12:34:53;;;;;;;1.08;0.80;;;29.90;42.00;;;;;;5054708;28;20021;-44
2022/08/10 12:37:25;;;;;;;2.37;1.00;;;30.00;41.80;;;;;;5053446;28;20435;-44
2022/08/10 12:40:04;;;;;;;1.15;0.80;;;30.00;41.70;;;;;;5054579;28;20370;-44
2022/08/10 12:42:41;;;;;;;0.98;0.80;;;30.10;41.30;;;;;;5054866;28;20071;-43
2022/08/10 12:45:18;;;;;;;1.27;1.05;;;30.30;41.10;;;;;;5054827;28;20045;-44
2022/08/10 12:47:58;;;;;;;1.73;0.95;;;30.30;41.00;;;;;;5053215;28;20111;-44
2022/08/10 12:50:38;;;;;;;1.23;1.00;;;30.40;41.10;;;;;;5054362;28;20025;-46
2022/08/10 12:53:09;;;;;;;1.30;0.82;;;30.50;41.00;;;;;;5054390;28;20082;-43
2022/08/10 12:55:37;;;;;;;0.80;0.80;;;30.60;40.90;;;;;;5054488;28;20032;-42
2022/08/10 12:58:05;;;;;;;2.15;0.95;;;30.60;41.00;;;;;;5054451;28;20379;-44
2022/08/10 13:00:33;;;;;;;2.28;0.93;;;30.70;40.60;;;;;;5054481;28;20092;-43
2022/08/10 13:03:00;;;;;;;1.77;0.63;;;30.80;40.40;;;;;;5054247;28;20372;-45
2022/08/10 13:05:27;;;;;;;2.35;0.80;;;30.90;40.30;;;;;;5054212;28;20025;-45
2022/08/10 13:10:54;;;;;;;1.13;0.77;;;31.00;39.40;;;;;;5054411;28;20043;-44
2022/08/10 13:13:23;;;;;;;1.20;1.00;;;31.10;39.40;;;;;;5054060;28;20033;-44
2022/08/10 13:15:51;;;;;;;0.70;0.60;;;31.10;38.90;;;;;;5054121;28;20469;-45
2022/08/10 13:18:23;;;;;;;1.25;0.80;;;31.10;38.60;;;;;;5053791;28;20020;-43
2022/08/10 13:20:56;;;;;;;2.10;0.85;;;31.10;38.50;;;;;;5053685;28;20368;-44
2022/08/10 13:23:26;;;;;;;1.77;1.08;;;31.10;38.40;;;;;;5054065;28;20039;-42